RA44704 LIPX-LYTV
Flight info
| Callsign | RA44704 |
|---|---|
| Flight time | 1h 9m |
| Altitude | 33000 |
| Route | TUVDE Y922 KOPER/F390 DCT BAXON DCT UMSON DCT BIGLO |
| Aircraft | B752/M-SDFGHIRWY/S |
Departure
| Time | 2026-05-01 09:50 |
|---|---|
| Airport | Verona Villafranca Valerio Catullo Airport (LIPX) |
Arrival
| Time | 2026-05-01 10:59 |
|---|---|
| Airport | Tivat Airport (LYTV) |
| Time | Latitude | Longitude | Altitude | Speed | Heading |
|---|---|---|---|---|---|
| 2026-05-01 09:46 | 45.40308 | 10.90445 | 249 ft | 0 kts | 134° |
| 2026-05-01 09:47 | 45.40294 | 10.90460 | 249 ft | 3 kts | 160° |
| 2026-05-01 09:47 | 45.40271 | 10.90444 | 249 ft | 5 kts | 223° |
| 2026-05-01 09:47 | 45.40259 | 10.90393 | 249 ft | 5 kts | 289° |
| 2026-05-01 09:47 | 45.40285 | 10.90349 | 249 ft | 5 kts | 313° |
| 2026-05-01 09:48 | 45.40319 | 10.90301 | 249 ft | 7 kts | 314° |
| 2026-05-01 09:48 | 45.40332 | 10.90231 | 249 ft | 8 kts | 270° |
| 2026-05-01 09:48 | 45.40350 | 10.90155 | 249 ft | 8 kts | 294° |
| 2026-05-01 09:48 | 45.40373 | 10.90079 | 249 ft | 1 kts | 294° |
| 2026-05-01 09:49 | 45.40379 | 10.90042 | 249 ft | 4 kts | 260° |
| 2026-05-01 09:49 | 45.40353 | 10.89992 | 249 ft | 9 kts | 230° |
| 2026-05-01 09:49 | 45.40094 | 10.89615 | 249 ft | 109 kts | 224° |
| 2026-05-01 09:49 | 45.39341 | 10.88518 | 563 ft | 183 kts | 225° |
| 2026-05-01 09:50 | 45.38423 | 10.87145 | 1709 ft | 204 kts | 226° |
| 2026-05-01 09:50 | 45.37446 | 10.85597 | 2308 ft | 230 kts | 227° |
| 2026-05-01 09:50 | 45.36221 | 10.83911 | 2826 ft | 255 kts | 209° |
| 2026-05-01 09:50 | 45.34525 | 10.83193 | 3730 ft | 260 kts | 178° |
| 2026-05-01 09:51 | 45.32785 | 10.83774 | 4653 ft | 265 kts | 149° |
| 2026-05-01 09:51 | 45.31459 | 10.85498 | 5607 ft | 267 kts | 121° |
| 2026-05-01 09:51 | 45.30875 | 10.87975 | 6577 ft | 268 kts | 91° |
| 2026-05-01 09:51 | 45.30935 | 10.90587 | 7599 ft | 269 kts | 84° |
| 2026-05-01 09:52 | 45.31034 | 10.93172 | 8683 ft | 268 kts | 84° |
| 2026-05-01 09:52 | 45.31132 | 10.95824 | 9621 ft | 272 kts | 83° |
| 2026-05-01 09:52 | 45.31228 | 10.98443 | 10588 ft | 273 kts | 83° |
| 2026-05-01 09:52 | 45.31333 | 11.01208 | 11210 ft | 289 kts | 82° |
| 2026-05-01 09:53 | 45.31446 | 11.04145 | 11657 ft | 308 kts | 83° |
| 2026-05-01 09:53 | 45.31565 | 11.07249 | 12169 ft | 325 kts | 83° |
| 2026-05-01 09:53 | 45.31614 | 11.10478 | 13038 ft | 330 kts | 87° |
| 2026-05-01 09:53 | 45.31446 | 11.13731 | 13825 ft | 338 kts | 94° |
| 2026-05-01 09:54 | 45.30924 | 11.16959 | 14769 ft | 342 kts | 101° |
| 2026-05-01 09:54 | 45.30138 | 11.20183 | 15653 ft | 347 kts | 106° |
| 2026-05-01 09:54 | 45.29133 | 11.23287 | 16440 ft | 351 kts | 106° |
| 2026-05-01 09:54 | 45.28213 | 11.26511 | 17284 ft | 353 kts | 107° |
| 2026-05-01 09:55 | 45.27224 | 11.29679 | 18108 ft | 358 kts | 107° |
| 2026-05-01 09:55 | 45.26172 | 11.32904 | 18959 ft | 362 kts | 108° |
| 2026-05-01 09:55 | 45.25104 | 11.36091 | 19843 ft | 364 kts | 108° |
| 2026-05-01 09:55 | 45.23994 | 11.39358 | 20570 ft | 370 kts | 108° |
| 2026-05-01 09:56 | 45.22875 | 11.42614 | 21373 ft | 372 kts | 108° |
| 2026-05-01 09:56 | 45.21721 | 11.45960 | 22011 ft | 379 kts | 108° |
| 2026-05-01 09:56 | 45.20568 | 11.49278 | 22771 ft | 382 kts | 108° |
| 2026-05-01 09:56 | 45.19401 | 11.52633 | 23566 ft | 382 kts | 108° |
| 2026-05-01 09:57 | 45.18219 | 11.56027 | 24109 ft | 390 kts | 108° |
| 2026-05-01 09:57 | 45.17008 | 11.59491 | 24812 ft | 392 kts | 108° |
| 2026-05-01 09:57 | 45.15798 | 11.62955 | 25465 ft | 397 kts | 108° |
| 2026-05-01 09:57 | 45.14502 | 11.66417 | 26187 ft | 402 kts | 111° |
| 2026-05-01 09:58 | 45.13136 | 11.69879 | 26733 ft | 408 kts | 111° |
| 2026-05-01 09:58 | 45.11763 | 11.73373 | 27323 ft | 412 kts | 111° |
| 2026-05-01 09:58 | 45.10354 | 11.76947 | 27967 ft | 415 kts | 111° |
| 2026-05-01 09:58 | 45.08969 | 11.80456 | 28746 ft | 413 kts | 111° |
| 2026-05-01 09:59 | 45.07572 | 11.83992 | 29534 ft | 411 kts | 110° |
| 2026-05-01 09:59 | 45.06203 | 11.87454 | 30305 ft | 408 kts | 110° |
| 2026-05-01 09:59 | 45.04833 | 11.90918 | 31071 ft | 404 kts | 110° |
| 2026-05-01 09:59 | 45.03462 | 11.94381 | 31837 ft | 400 kts | 110° |
| 2026-05-01 10:00 | 45.02125 | 11.97752 | 32591 ft | 395 kts | 110° |
| 2026-05-01 10:00 | 45.00788 | 12.01119 | 33281 ft | 391 kts | 109° |
| 2026-05-01 10:00 | 44.99442 | 12.04526 | 33360 ft | 404 kts | 109° |
| 2026-05-01 10:00 | 44.98058 | 12.08023 | 33360 ft | 418 kts | 110° |
| 2026-05-01 10:01 | 44.96605 | 12.11676 | 33350 ft | 432 kts | 110° |
| 2026-05-01 10:01 | 44.95128 | 12.15385 | 33346 ft | 444 kts | 110° |
| 2026-05-01 10:01 | 44.92030 | 12.23131 | 33345 ft | 462 kts | 111° |
| 2026-05-01 10:02 | 44.88891 | 12.30932 | 33321 ft | 453 kts | 111° |
| 2026-05-01 10:02 | 44.85795 | 12.38634 | 33328 ft | 450 kts | 110° |
| 2026-05-01 10:03 | 44.82736 | 12.46216 | 33313 ft | 440 kts | 110° |
| 2026-05-01 10:03 | 44.81247 | 12.49890 | 33314 ft | 425 kts | 110° |
| 2026-05-01 10:03 | 44.79798 | 12.53472 | 33306 ft | 417 kts | 110° |
| 2026-05-01 10:04 | 44.76913 | 12.60623 | 33323 ft | 427 kts | 110° |
| 2026-05-01 10:04 | 44.73981 | 12.67839 | 33322 ft | 424 kts | 111° |
| 2026-05-01 10:05 | 44.71053 | 12.75034 | 33327 ft | 426 kts | 111° |
| 2026-05-01 10:05 | 44.68114 | 12.82235 | 33325 ft | 427 kts | 111° |
| 2026-05-01 10:06 | 44.65161 | 12.89448 | 33327 ft | 424 kts | 111° |
| 2026-05-01 10:06 | 44.62228 | 12.96598 | 33327 ft | 425 kts | 111° |
| 2026-05-01 10:07 | 44.59275 | 13.03780 | 33328 ft | 428 kts | 111° |
| 2026-05-01 10:07 | 44.56301 | 13.10993 | 33347 ft | 427 kts | 111° |
| 2026-05-01 10:08 | 44.51846 | 13.21764 | 33321 ft | 430 kts | 111° |
| 2026-05-01 10:09 | 44.48863 | 13.28948 | 33318 ft | 426 kts | 111° |
| 2026-05-01 10:09 | 44.45882 | 13.36115 | 33315 ft | 427 kts | 112° |
| 2026-05-01 10:09 | 44.44399 | 13.39674 | 33449 ft | 431 kts | 112° |
| 2026-05-01 10:10 | 44.42883 | 13.43311 | 33433 ft | 432 kts | 112° |
| 2026-05-01 10:10 | 44.41404 | 13.46876 | 33305 ft | 413 kts | 110° |
| 2026-05-01 10:10 | 44.38753 | 13.53995 | 33321 ft | 426 kts | 109° |
| 2026-05-01 10:11 | 44.35959 | 13.61448 | 33327 ft | 432 kts | 109° |
| 2026-05-01 10:11 | 44.33199 | 13.68785 | 33336 ft | 429 kts | 110° |
| 2026-05-01 10:12 | 44.30866 | 13.74970 | 33336 ft | 432 kts | 110° |
| 2026-05-01 10:13 | 44.26206 | 13.87286 | 33313 ft | 429 kts | 110° |
| 2026-05-01 10:13 | 44.23434 | 13.94594 | 33315 ft | 430 kts | 111° |
| 2026-05-01 10:14 | 44.19183 | 14.05758 | 33317 ft | 435 kts | 111° |
| 2026-05-01 10:14 | 44.16368 | 14.13120 | 33320 ft | 432 kts | 111° |
| 2026-05-01 10:15 | 44.13546 | 14.20491 | 33322 ft | 435 kts | 111° |
| 2026-05-01 10:15 | 44.10695 | 14.27908 | 33307 ft | 435 kts | 112° |
| 2026-05-01 10:16 | 44.07855 | 14.35284 | 33309 ft | 437 kts | 112° |
| 2026-05-01 10:17 | 44.03546 | 14.46433 | 33299 ft | 436 kts | 112° |
| 2026-05-01 10:17 | 43.99252 | 14.57502 | 33288 ft | 438 kts | 112° |
| 2026-05-01 10:18 | 43.94899 | 14.68676 | 33300 ft | 437 kts | 113° |
| 2026-05-01 10:19 | 43.91988 | 14.76129 | 33295 ft | 444 kts | 113° |
| 2026-05-01 10:19 | 43.89065 | 14.83584 | 33279 ft | 440 kts | 113° |
| 2026-05-01 10:20 | 43.84703 | 14.94679 | 33266 ft | 441 kts | 114° |
| 2026-05-01 10:20 | 43.81761 | 15.02142 | 33255 ft | 443 kts | 114° |
| 2026-05-01 10:21 | 43.77312 | 15.13385 | 33260 ft | 445 kts | 114° |
| 2026-05-01 10:22 | 43.72834 | 15.24659 | 33266 ft | 450 kts | 114° |
| 2026-05-01 10:23 | 43.68362 | 15.35865 | 33260 ft | 446 kts | 113° |
| 2026-05-01 10:23 | 43.63845 | 15.47149 | 33253 ft | 451 kts | 114° |
| 2026-05-01 10:24 | 43.57776 | 15.62236 | 33248 ft | 451 kts | 114° |
| 2026-05-01 10:25 | 43.51670 | 15.77356 | 33263 ft | 452 kts | 114° |
| 2026-05-01 10:26 | 43.48732 | 15.84994 | 33251 ft | 452 kts | 114° |
| 2026-05-01 10:27 | 43.42841 | 16.00245 | 33244 ft | 454 kts | 114° |
| 2026-05-01 10:28 | 43.38402 | 16.11676 | 33244 ft | 455 kts | 114° |
| 2026-05-01 10:28 | 43.33923 | 16.23164 | 33259 ft | 455 kts | 114° |
| 2026-05-01 10:29 | 43.29435 | 16.34632 | 33246 ft | 456 kts | 114° |
| 2026-05-01 10:30 | 43.23403 | 16.49968 | 33240 ft | 457 kts | 114° |
| 2026-05-01 10:31 | 43.17346 | 16.65288 | 33242 ft | 458 kts | 115° |
| 2026-05-01 10:32 | 43.12783 | 16.76773 | 33234 ft | 459 kts | 115° |
| 2026-05-01 10:33 | 43.06673 | 16.92084 | 33222 ft | 461 kts | 116° |
| 2026-05-01 10:34 | 43.02064 | 17.03577 | 33224 ft | 461 kts | 116° |
| 2026-05-01 10:34 | 42.98985 | 17.11229 | 33211 ft | 462 kts | 116° |
| 2026-05-01 10:35 | 42.94341 | 17.22734 | 33068 ft | 461 kts | 116° |
| 2026-05-01 10:35 | 42.92794 | 17.26551 | 32658 ft | 454 kts | 116° |
| 2026-05-01 10:35 | 42.91305 | 17.30225 | 32252 ft | 443 kts | 116° |
| 2026-05-01 10:36 | 42.88372 | 17.37450 | 31506 ft | 436 kts | 115° |
| 2026-05-01 10:36 | 42.86895 | 17.41086 | 31093 ft | 439 kts | 115° |
| 2026-05-01 10:36 | 42.85419 | 17.44710 | 30694 ft | 443 kts | 115° |
| 2026-05-01 10:37 | 42.83928 | 17.48367 | 30218 ft | 439 kts | 115° |
| 2026-05-01 10:37 | 42.81012 | 17.55500 | 29217 ft | 424 kts | 115° |
| 2026-05-01 10:37 | 42.79603 | 17.58946 | 28688 ft | 419 kts | 115° |
| 2026-05-01 10:38 | 42.78193 | 17.62390 | 28161 ft | 417 kts | 116° |
| 2026-05-01 10:38 | 42.76771 | 17.65855 | 27634 ft | 415 kts | 116° |
| 2026-05-01 10:38 | 42.75385 | 17.69230 | 27118 ft | 411 kts | 116° |
| 2026-05-01 10:38 | 42.74000 | 17.72597 | 26603 ft | 407 kts | 116° |
| 2026-05-01 10:39 | 42.72626 | 17.75936 | 26092 ft | 403 kts | 117° |
| 2026-05-01 10:39 | 42.71260 | 17.79249 | 25585 ft | 399 kts | 117° |
| 2026-05-01 10:39 | 42.69924 | 17.82487 | 25073 ft | 396 kts | 117° |
| 2026-05-01 10:39 | 42.68582 | 17.85737 | 24560 ft | 392 kts | 117° |
| 2026-05-01 10:40 | 42.67255 | 17.88944 | 24044 ft | 388 kts | 117° |
| 2026-05-01 10:40 | 42.65942 | 17.92115 | 23516 ft | 386 kts | 117° |
| 2026-05-01 10:40 | 42.64639 | 17.95259 | 22994 ft | 382 kts | 117° |
| 2026-05-01 10:40 | 42.63352 | 17.98361 | 22487 ft | 379 kts | 117° |
| 2026-05-01 10:41 | 42.62060 | 18.01472 | 21988 ft | 377 kts | 116° |
| 2026-05-01 10:41 | 42.60777 | 18.04559 | 21509 ft | 374 kts | 116° |
| 2026-05-01 10:41 | 42.58248 | 18.10631 | 20523 ft | 369 kts | 116° |
| 2026-05-01 10:42 | 42.56992 | 18.13641 | 20050 ft | 366 kts | 116° |
| 2026-05-01 10:42 | 42.55744 | 18.16633 | 19588 ft | 363 kts | 116° |
| 2026-05-01 10:42 | 42.54500 | 18.19608 | 19136 ft | 362 kts | 116° |
| 2026-05-01 10:42 | 42.53277 | 18.22531 | 18683 ft | 359 kts | 116° |
| 2026-05-01 10:43 | 42.52051 | 18.25461 | 18233 ft | 357 kts | 116° |
| 2026-05-01 10:43 | 42.50832 | 18.28367 | 17797 ft | 355 kts | 116° |
| 2026-05-01 10:43 | 42.49620 | 18.31257 | 17359 ft | 351 kts | 116° |
| 2026-05-01 10:43 | 42.48417 | 18.34123 | 16921 ft | 349 kts | 116° |
| 2026-05-01 10:44 | 42.47233 | 18.36938 | 16487 ft | 347 kts | 116° |
| 2026-05-01 10:44 | 42.46040 | 18.39771 | 16048 ft | 344 kts | 116° |
| 2026-05-01 10:44 | 42.44861 | 18.42574 | 15609 ft | 342 kts | 117° |
| 2026-05-01 10:44 | 42.43687 | 18.45356 | 15169 ft | 339 kts | 117° |
| 2026-05-01 10:45 | 42.42539 | 18.48076 | 14746 ft | 336 kts | 117° |
| 2026-05-01 10:45 | 42.41386 | 18.50806 | 14320 ft | 334 kts | 117° |
| 2026-05-01 10:45 | 42.40238 | 18.53521 | 13892 ft | 332 kts | 117° |
| 2026-05-01 10:45 | 42.39098 | 18.56215 | 13467 ft | 329 kts | 117° |
| 2026-05-01 10:46 | 42.37961 | 18.58896 | 13043 ft | 325 kts | 117° |
| 2026-05-01 10:46 | 42.36858 | 18.61499 | 12619 ft | 323 kts | 117° |
| 2026-05-01 10:46 | 42.35741 | 18.64132 | 12206 ft | 321 kts | 117° |
| 2026-05-01 10:46 | 42.34625 | 18.66757 | 11782 ft | 316 kts | 117° |
| 2026-05-01 10:47 | 42.33398 | 18.69175 | 11367 ft | 317 kts | 130° |
| 2026-05-01 10:47 | 42.31661 | 18.71029 | 10943 ft | 320 kts | 148° |
| 2026-05-01 10:47 | 42.29589 | 18.72076 | 10405 ft | 324 kts | 166° |
| 2026-05-01 10:47 | 42.27377 | 18.72455 | 10133 ft | 313 kts | 171° |
| 2026-05-01 10:48 | 42.25268 | 18.72758 | 10110 ft | 296 kts | 171° |
| 2026-05-01 10:48 | 42.23286 | 18.73021 | 9965 ft | 283 kts | 171° |
| 2026-05-01 10:48 | 42.21363 | 18.73261 | 9714 ft | 272 kts | 171° |
| 2026-05-01 10:48 | 42.19463 | 18.73494 | 9530 ft | 277 kts | 171° |
| 2026-05-01 10:49 | 42.17523 | 18.73726 | 9348 ft | 280 kts | 172° |
| 2026-05-01 10:49 | 42.15591 | 18.73960 | 9130 ft | 277 kts | 169° |
| 2026-05-01 10:49 | 42.13766 | 18.74641 | 8976 ft | 269 kts | 155° |
| 2026-05-01 10:49 | 42.12014 | 18.75539 | 8948 ft | 272 kts | 156° |
| 2026-05-01 10:50 | 42.10274 | 18.76524 | 8895 ft | 265 kts | 144° |
| 2026-05-01 10:50 | 42.09038 | 18.78180 | 8816 ft | 245 kts | 116° |
| 2026-05-01 10:50 | 42.08593 | 18.80328 | 8485 ft | 237 kts | 86° |
| 2026-05-01 10:50 | 42.08844 | 18.82492 | 8161 ft | 235 kts | 76° |
| 2026-05-01 10:51 | 42.09252 | 18.84615 | 7865 ft | 232 kts | 73° |
| 2026-05-01 10:51 | 42.09709 | 18.86658 | 7565 ft | 231 kts | 71° |
| 2026-05-01 10:51 | 42.10390 | 18.88623 | 7061 ft | 236 kts | 51° |
| 2026-05-01 10:51 | 42.11522 | 18.90206 | 6813 ft | 231 kts | 45° |
| 2026-05-01 10:52 | 42.12643 | 18.91725 | 6608 ft | 225 kts | 45° |
| 2026-05-01 10:52 | 42.13718 | 18.93158 | 6562 ft | 211 kts | 44° |
| 2026-05-01 10:52 | 42.14758 | 18.94526 | 6450 ft | 213 kts | 44° |
| 2026-05-01 10:52 | 42.16009 | 18.95596 | 6096 ft | 217 kts | 17° |
| 2026-05-01 10:53 | 42.17508 | 18.95585 | 5613 ft | 220 kts | 343° |
| 2026-05-01 10:53 | 42.18853 | 18.94332 | 5207 ft | 254 kts | 311° |
| 2026-05-01 10:53 | 42.19723 | 18.92276 | 4483 ft | 260 kts | 298° |
| 2026-05-01 10:53 | 42.20806 | 18.90323 | 3481 ft | 271 kts | 320° |
| 2026-05-01 10:54 | 42.22164 | 18.88661 | 2877 ft | 261 kts | 317° |
| 2026-05-01 10:54 | 42.23415 | 18.86965 | 2433 ft | 247 kts | 316° |
| 2026-05-01 10:54 | 42.24569 | 18.85342 | 2108 ft | 232 kts | 315° |
| 2026-05-01 10:54 | 42.25630 | 18.83810 | 2019 ft | 217 kts | 315° |
| 2026-05-01 10:55 | 42.26617 | 18.82363 | 1985 ft | 203 kts | 315° |
| 2026-05-01 10:55 | 42.27536 | 18.81004 | 2001 ft | 188 kts | 315° |
| 2026-05-01 10:55 | 42.28518 | 18.79976 | 1986 ft | 172 kts | 343° |
| 2026-05-01 10:55 | 42.29601 | 18.79490 | 1993 ft | 159 kts | 345° |
| 2026-05-01 10:56 | 42.30594 | 18.79040 | 1879 ft | 141 kts | 345° |
| 2026-05-01 10:56 | 42.31403 | 18.78678 | 1844 ft | 122 kts | 346° |
| 2026-05-01 10:56 | 42.32214 | 18.78313 | 1743 ft | 126 kts | 346° |
| 2026-05-01 10:56 | 42.33055 | 18.77956 | 1683 ft | 127 kts | 348° |
| 2026-05-01 10:57 | 42.33893 | 18.77643 | 1571 ft | 125 kts | 348° |
| 2026-05-01 10:57 | 42.34727 | 18.77295 | 1364 ft | 123 kts | 345° |
| 2026-05-01 10:57 | 42.35541 | 18.76910 | 1109 ft | 123 kts | 343° |
| 2026-05-01 10:57 | 42.36297 | 18.76431 | 892 ft | 119 kts | 337° |
| 2026-05-01 10:58 | 42.37026 | 18.75883 | 719 ft | 124 kts | 332° |
| 2026-05-01 10:58 | 42.37778 | 18.75276 | 575 ft | 130 kts | 330° |
| 2026-05-01 10:58 | 42.38519 | 18.74586 | 393 ft | 129 kts | 325° |
| 2026-05-01 10:58 | 42.39187 | 18.73821 | 178 ft | 123 kts | 321° |
| 2026-05-01 10:59 | 42.39841 | 18.73059 | 28 ft | 123 kts | 321° |
| 2026-05-01 10:59 | 42.40420 | 18.72381 | 29 ft | 89 kts | 321° |
| 2026-05-01 10:59 | 42.40760 | 18.71981 | 29 ft | 43 kts | 319° |
| 2026-05-01 10:59 | 42.40891 | 18.71829 | 28 ft | 10 kts | 319° |
| 2026-05-01 11:00 | 42.40957 | 18.71804 | 28 ft | 10 kts | 24° |
| 2026-05-01 11:00 | 42.40997 | 18.71846 | 28 ft | 7 kts | 25° |
| 2026-05-01 11:00 | 42.41055 | 18.71816 | 28 ft | 11 kts | 320° |
| 2026-05-01 11:00 | 42.41119 | 18.71740 | 27 ft | 13 kts | 319° |
| 2026-05-01 11:01 | 42.41193 | 18.71653 | 27 ft | 15 kts | 319° |
| 2026-05-01 11:01 | 42.41246 | 18.71595 | 27 ft | 5 kts | 340° |
| 2026-05-01 11:01 | 42.41275 | 18.71615 | 27 ft | 4 kts | 70° |
| 2026-05-01 11:01 | 42.41269 | 18.71639 | 26 ft | 2 kts | 147° |
| 2026-05-01 11:02 | 42.41259 | 18.71643 | 27 ft | 0 kts | 167° |